sensor_id;sensor_type;location;lat;lon;timestamp;P1;durP1;ratioP1;P2;durP2;ratioP2
59468;SDS011;45277;52.768;18.262;2023-06-14T00:00:15;6.22;;;3.80;;
59468;SDS011;45277;52.768;18.262;2023-06-14T00:02:07;6.97;;;4.00;;
59468;SDS011;45277;52.768;18.262;2023-06-14T00:03:39;5.88;;;4.05;;
59468;SDS011;45277;52.768;18.262;2023-06-14T00:05:11;5.90;;;3.97;;
59468;SDS011;45277;52.768;18.262;2023-06-14T00:06:45;5.53;;;3.72;;
59468;SDS011;45277;52.768;18.262;2023-06-14T00:08:17;5.38;;;4.15;;
59468;SDS011;45277;52.768;18.262;2023-06-14T00:09:49;5.43;;;4.00;;
59468;SDS011;45277;52.768;18.262;2023-06-14T00:11:21;6.47;;;4.00;;
59468;SDS011;45277;52.768;18.262;2023-06-14T00:12:52;7.13;;;4.07;;
59468;SDS011;45277;52.768;18.262;2023-06-14T00:14:24;6.47;;;4.10;;
59468;SDS011;45277;52.768;18.262;2023-06-14T00:15:55;4.32;;;3.60;;
59468;SDS011;45277;52.768;18.262;2023-06-14T00:17:27;7.47;;;3.92;;
59468;SDS011;45277;52.768;18.262;2023-06-14T00:19:03;6.25;;;4.10;;
59468;SDS011;45277;52.768;18.262;2023-06-14T00:20:35;7.25;;;4.32;;
59468;SDS011;45277;52.768;18.262;2023-06-14T00:22:07;10.75;;;4.55;;
59468;SDS011;45277;52.768;18.262;2023-06-14T00:23:38;8.50;;;4.97;;
59468;SDS011;45277;52.768;18.262;2023-06-14T00:25:09;9.43;;;5.50;;
59468;SDS011;45277;52.768;18.262;2023-06-14T00:26:41;5.20;;;4.30;;
59468;SDS011;45277;52.768;18.262;2023-06-14T00:28:12;8.32;;;4.68;;
59468;SDS011;45277;52.768;18.262;2023-06-14T00:29:44;7.72;;;4.70;;
59468;SDS011;45277;52.768;18.262;2023-06-14T00:31:16;5.60;;;4.60;;
59468;SDS011;45277;52.768;18.262;2023-06-14T00:32:47;5.55;;;4.72;;
59468;SDS011;45277;52.768;18.262;2023-06-14T00:34:18;10.48;;;4.80;;
59468;SDS011;45277;52.768;18.262;2023-06-14T00:35:50;7.05;;;4.50;;
59468;SDS011;45277;52.768;18.262;2023-06-14T00:37:24;8.10;;;5.00;;
59468;SDS011;45277;52.768;18.262;2023-06-14T00:38:55;6.15;;;4.18;;
59468;SDS011;45277;52.768;18.262;2023-06-14T00:40:27;5.97;;;4.82;;
59468;SDS011;45277;52.768;18.262;2023-06-14T00:41:58;7.13;;;4.82;;
59468;SDS011;45277;52.768;18.262;2023-06-14T00:43:29;8.65;;;5.22;;
59468;SDS011;45277;52.768;18.262;2023-06-14T00:45:01;6.30;;;4.45;;
59468;SDS011;45277;52.768;18.262;2023-06-14T00:46:33;6.00;;;4.20;;
59468;SDS011;45277;52.768;18.262;2023-06-14T00:48:04;5.57;;;4.50;;
59468;SDS011;45277;52.768;18.262;2023-06-14T00:49:38;6.10;;;4.72;;
59468;SDS011;45277;52.768;18.262;2023-06-14T00:51:09;6.95;;;5.25;;
59468;SDS011;45277;52.768;18.262;2023-06-14T00:52:40;7.25;;;5.10;;
59468;SDS011;45277;52.768;18.262;2023-06-14T00:54:12;6.05;;;4.55;;
59468;SDS011;45277;52.768;18.262;2023-06-14T00:55:43;6.47;;;4.40;;
59468;SDS011;45277;52.768;18.262;2023-06-14T00:57:14;8.75;;;4.80;;
59468;SDS011;45277;52.768;18.262;2023-06-14T00:58:46;7.32;;;4.38;;
59468;SDS011;45277;52.768;18.262;2023-06-14T01:00:18;7.38;;;4.35;;
59468;SDS011;45277;52.768;18.262;2023-06-14T01:04:26;7.35;;;4.75;;
59468;SDS011;45277;52.768;18.262;2023-06-14T01:11:22;5.35;;;3.90;;
59468;SDS011;45277;52.768;18.262;2023-06-14T01:16:11;6.28;;;3.80;;
59468;SDS011;45277;52.768;18.262;2023-06-14T01:17:44;4.93;;;3.70;;
59468;SDS011;45277;52.768;18.262;2023-06-14T01:19:17;5.53;;;3.72;;
59468;SDS011;45277;52.768;18.262;2023-06-14T01:20:49;5.00;;;4.20;;
59468;SDS011;45277;52.768;18.262;2023-06-14T01:22:21;4.18;;;3.78;;
59468;SDS011;45277;52.768;18.262;2023-06-14T01:23:52;5.65;;;3.90;;
59468;SDS011;45277;52.768;18.262;2023-06-14T01:25:25;5.80;;;3.70;;
59468;SDS011;45277;52.768;18.262;2023-06-14T01:26:57;4.50;;;3.80;;
59468;SDS011;45277;52.768;18.262;2023-06-14T01:28:30;4.53;;;3.70;;
59468;SDS011;45277;52.768;18.262;2023-06-14T01:30:04;4.68;;;3.78;;
59468;SDS011;45277;52.768;18.262;2023-06-14T01:31:36;4.75;;;3.58;;
59468;SDS011;45277;52.768;18.262;2023-06-14T01:33:12;4.38;;;3.80;;
59468;SDS011;45277;52.768;18.262;2023-06-14T01:34:48;4.85;;;3.83;;
59468;SDS011;45277;52.768;18.262;2023-06-14T01:36:20;5.03;;;3.95;;
59468;SDS011;45277;52.768;18.262;2023-06-14T01:37:53;4.22;;;3.60;;
59468;SDS011;45277;52.768;18.262;2023-06-14T01:39:25;5.07;;;3.80;;
59468;SDS011;45277;52.768;18.262;2023-06-14T01:40:57;3.55;;;3.25;;
59468;SDS011;45277;52.768;18.262;2023-06-14T01:42:31;5.00;;;3.90;;
59468;SDS011;45277;52.768;18.262;2023-06-14T01:44:04;5.75;;;4.15;;
59468;SDS011;45277;52.768;18.262;2023-06-14T01:45:36;4.65;;;3.90;;
59468;SDS011;45277;52.768;18.262;2023-06-14T01:47:08;7.20;;;3.97;;
59468;SDS011;45277;52.768;18.262;2023-06-14T01:48:40;5.60;;;4.32;;
59468;SDS011;45277;52.768;18.262;2023-06-14T01:50:13;4.60;;;3.90;;
59468;SDS011;45277;52.768;18.262;2023-06-14T01:51:45;5.07;;;4.10;;
59468;SDS011;45277;52.768;18.262;2023-06-14T01:53:16;4.75;;;3.90;;
59468;SDS011;45277;52.768;18.262;2023-06-14T01:54:47;6.03;;;4.20;;
59468;SDS011;45277;52.768;18.262;2023-06-14T01:56:20;5.82;;;3.80;;
59468;SDS011;45277;52.768;18.262;2023-06-14T01:57:52;4.20;;;3.60;;
59468;SDS011;45277;52.768;18.262;2023-06-14T01:59:24;4.40;;;4.00;;
59468;SDS011;45277;52.768;18.262;2023-06-14T02:00:56;5.80;;;3.80;;
59468;SDS011;45277;52.768;18.262;2023-06-14T02:02:28;6.53;;;3.92;;
59468;SDS011;45277;52.768;18.262;2023-06-14T02:03:59;10.88;;;4.30;;
59468;SDS011;45277;52.768;18.262;2023-06-14T02:05:31;7.28;;;3.83;;
59468;SDS011;45277;52.768;18.262;2023-06-14T02:07:02;7.20;;;3.97;;
59468;SDS011;45277;52.768;18.262;2023-06-14T02:08:34;6.05;;;3.90;;
59468;SDS011;45277;52.768;18.262;2023-06-14T02:10:05;5.55;;;4.13;;
59468;SDS011;45277;52.768;18.262;2023-06-14T02:11:37;7.82;;;4.03;;
59468;SDS011;45277;52.768;18.262;2023-06-14T02:13:08;4.72;;;4.05;;
59468;SDS011;45277;52.768;18.262;2023-06-14T02:14:40;5.50;;;3.92;;
59468;SDS011;45277;52.768;18.262;2023-06-14T02:16:11;8.13;;;4.07;;
59468;SDS011;45277;52.768;18.262;2023-06-14T02:17:46;4.93;;;4.00;;
59468;SDS011;45277;52.768;18.262;2023-06-14T02:19:20;5.40;;;4.00;;
59468;SDS011;45277;52.768;18.262;2023-06-14T02:20:52;6.07;;;3.90;;
59468;SDS011;45277;52.768;18.262;2023-06-14T02:22:23;7.72;;;3.72;;
59468;SDS011;45277;52.768;18.262;2023-06-14T02:23:55;5.30;;;3.97;;
59468;SDS011;45277;52.768;18.262;2023-06-14T02:25:26;4.00;;;3.60;;
59468;SDS011;45277;52.768;18.262;2023-06-14T02:27:01;4.03;;;3.60;;
59468;SDS011;45277;52.768;18.262;2023-06-14T02:28:33;5.70;;;3.90;;
59468;SDS011;45277;52.768;18.262;2023-06-14T02:30:06;6.05;;;4.00;;
59468;SDS011;45277;52.768;18.262;2023-06-14T02:31:37;5.10;;;3.55;;
59468;SDS011;45277;52.768;18.262;2023-06-14T02:33:09;5.20;;;3.83;;
59468;SDS011;45277;52.768;18.262;2023-06-14T02:34:43;4.50;;;3.80;;
59468;SDS011;45277;52.768;18.262;2023-06-14T02:36:14;5.20;;;4.20;;
59468;SDS011;45277;52.768;18.262;2023-06-14T02:37:46;5.75;;;4.10;;
59468;SDS011;45277;52.768;18.262;2023-06-14T02:39:17;4.35;;;3.67;;
59468;SDS011;45277;52.768;18.262;2023-06-14T02:40:51;6.97;;;3.53;;
59468;SDS011;45277;52.768;18.262;2023-06-14T02:42:22;4.82;;;3.83;;
59468;SDS011;45277;52.768;18.262;2023-06-14T02:43:54;4.85;;;3.70;;
59468;SDS011;45277;52.768;18.262;2023-06-14T02:45:26;6.22;;;3.80;;
59468;SDS011;45277;52.768;18.262;2023-06-14T02:46:58;5.32;;;3.95;;
59468;SDS011;45277;52.768;18.262;2023-06-14T02:48:31;4.53;;;3.55;;
59468;SDS011;45277;52.768;18.262;2023-06-14T02:50:02;3.92;;;3.53;;
59468;SDS011;45277;52.768;18.262;2023-06-14T02:51:34;5.30;;;3.58;;
59468;SDS011;45277;52.768;18.262;2023-06-14T02:53:05;6.65;;;3.67;;
59468;SDS011;45277;52.768;18.262;2023-06-14T02:54:37;6.47;;;3.88;;
59468;SDS011;45277;52.768;18.262;2023-06-14T02:56:09;6.30;;;3.30;;
59468;SDS011;45277;52.768;18.262;2023-06-14T02:57:40;5.18;;;3.60;;
59468;SDS011;45277;52.768;18.262;2023-06-14T02:59:11;4.18;;;3.78;;
59468;SDS011;45277;52.768;18.262;2023-06-14T03:00:44;4.40;;;3.72;;
59468;SDS011;45277;52.768;18.262;2023-06-14T03:02:15;4.32;;;3.65;;
59468;SDS011;45277;52.768;18.262;2023-06-14T03:03:47;6.05;;;4.05;;
59468;SDS011;45277;52.768;18.262;2023-06-14T03:05:18;4.00;;;3.60;;
59468;SDS011;45277;52.768;18.262;2023-06-14T03:06:52;8.32;;;4.25;;
59468;SDS011;45277;52.768;18.262;2023-06-14T03:08:24;5.18;;;3.90;;
59468;SDS011;45277;52.768;18.262;2023-06-14T03:09:58;7.10;;;3.90;;
59468;SDS011;45277;52.768;18.262;2023-06-14T03:11:29;6.00;;;4.15;;
59468;SDS011;45277;52.768;18.262;2023-06-14T03:13:00;5.38;;;3.70;;
59468;SDS011;45277;52.768;18.262;2023-06-14T03:14:32;7.00;;;4.13;;
59468;SDS011;45277;52.768;18.262;2023-06-14T03:16:04;6.18;;;4.20;;
59468;SDS011;45277;52.768;18.262;2023-06-14T03:17:35;5.38;;;4.30;;
59468;SDS011;45277;52.768;18.262;2023-06-14T03:19:09;5.38;;;4.10;;
59468;SDS011;45277;52.768;18.262;2023-06-14T03:20:41;6.03;;;4.45;;
59468;SDS011;45277;52.768;18.262;2023-06-14T03:22:16;5.65;;;3.95;;
59468;SDS011;45277;52.768;18.262;2023-06-14T03:23:47;4.20;;;3.50;;
59468;SDS011;45277;52.768;18.262;2023-06-14T03:25:19;5.05;;;3.75;;
59468;SDS011;45277;52.768;18.262;2023-06-14T03:26:52;5.28;;;4.03;;
59468;SDS011;45277;52.768;18.262;2023-06-14T03:28:24;5.70;;;4.00;;
59468;SDS011;45277;52.768;18.262;2023-06-14T03:29:56;6.88;;;4.57;;
59468;SDS011;45277;52.768;18.262;2023-06-14T03:31:28;5.53;;;4.07;;
59468;SDS011;45277;52.768;18.262;2023-06-14T03:33:03;8.48;;;5.10;;
59468;SDS011;45277;52.768;18.262;2023-06-14T03:34:35;5.35;;;4.28;;
59468;SDS011;45277;52.768;18.262;2023-06-14T03:36:08;6.20;;;4.70;;
59468;SDS011;45277;52.768;18.262;2023-06-14T03:37:40;5.35;;;4.50;;
59468;SDS011;45277;52.768;18.262;2023-06-14T03:39:11;5.07;;;4.22;;
59468;SDS011;45277;52.768;18.262;2023-06-14T03:40:43;5.97;;;4.47;;
59468;SDS011;45277;52.768;18.262;2023-06-14T03:42:15;5.85;;;4.80;;
59468;SDS011;45277;52.768;18.262;2023-06-14T03:43:46;11.27;;;4.68;;
59468;SDS011;45277;52.768;18.262;2023-06-14T03:45:17;5.85;;;4.45;;
59468;SDS011;45277;52.768;18.262;2023-06-14T03:46:49;5.07;;;4.43;;
59468;SDS011;45277;52.768;18.262;2023-06-14T03:48:20;5.68;;;4.57;;
59468;SDS011;45277;52.768;18.262;2023-06-14T03:49:51;5.38;;;4.40;;
59468;SDS011;45277;52.768;18.262;2023-06-14T03:51:23;6.00;;;4.43;;
59468;SDS011;45277;52.768;18.262;2023-06-14T03:52:55;5.10;;;4.22;;
59468;SDS011;45277;52.768;18.262;2023-06-14T03:54:27;5.50;;;4.55;;
59468;SDS011;45277;52.768;18.262;2023-06-14T03:55:59;7.80;;;4.90;;
59468;SDS011;45277;52.768;18.262;2023-06-14T03:57:30;8.43;;;4.82;;
59468;SDS011;45277;52.768;18.262;2023-06-14T03:59:02;6.93;;;5.20;;
59468;SDS011;45277;52.768;18.262;2023-06-14T04:00:33;6.95;;;5.03;;
59468;SDS011;45277;52.768;18.262;2023-06-14T04:02:04;9.40;;;4.75;;
59468;SDS011;45277;52.768;18.262;2023-06-14T04:03:36;6.00;;;5.05;;
59468;SDS011;45277;52.768;18.262;2023-06-14T04:05:07;6.05;;;5.07;;
59468;SDS011;45277;52.768;18.262;2023-06-14T04:06:39;6.55;;;5.15;;
59468;SDS011;45277;52.768;18.262;2023-06-14T04:08:12;5.47;;;4.60;;
59468;SDS011;45277;52.768;18.262;2023-06-14T04:09:45;7.60;;;5.18;;
59468;SDS011;45277;52.768;18.262;2023-06-14T04:11:17;6.13;;;5.05;;
59468;SDS011;45277;52.768;18.262;2023-06-14T04:12:48;6.70;;;5.28;;
59468;SDS011;45277;52.768;18.262;2023-06-14T04:14:21;7.47;;;5.28;;
59468;SDS011;45277;52.768;18.262;2023-06-14T04:15:52;9.43;;;5.40;;
59468;SDS011;45277;52.768;18.262;2023-06-14T04:17:23;6.30;;;4.97;;
59468;SDS011;45277;52.768;18.262;2023-06-14T04:18:55;7.18;;;5.30;;
59468;SDS011;45277;52.768;18.262;2023-06-14T04:20:28;8.77;;;5.47;;
59468;SDS011;45277;52.768;18.262;2023-06-14T04:22:00;6.47;;;5.15;;
59468;SDS011;45277;52.768;18.262;2023-06-14T04:23:33;7.18;;;5.72;;
59468;SDS011;45277;52.768;18.262;2023-06-14T04:25:04;6.57;;;5.70;;
59468;SDS011;45277;52.768;18.262;2023-06-14T04:26:37;8.55;;;5.90;;
59468;SDS011;45277;52.768;18.262;2023-06-14T04:28:08;6.65;;;5.80;;
59468;SDS011;45277;52.768;18.262;2023-06-14T04:29:39;6.65;;;5.50;;
59468;SDS011;45277;52.768;18.262;2023-06-14T04:31:13;8.23;;;5.65;;
59468;SDS011;45277;52.768;18.262;2023-06-14T04:32:46;8.93;;;5.65;;
59468;SDS011;45277;52.768;18.262;2023-06-14T04:34:17;6.63;;;5.65;;
59468;SDS011;45277;52.768;18.262;2023-06-14T04:35:48;8.57;;;6.25;;
59468;SDS011;45277;52.768;18.262;2023-06-14T04:37:20;8.15;;;6.30;;
59468;SDS011;45277;52.768;18.262;2023-06-14T04:38:52;7.75;;;5.82;;
59468;SDS011;45277;52.768;18.262;2023-06-14T04:40:24;6.32;;;5.53;;
59468;SDS011;45277;52.768;18.262;2023-06-14T04:41:56;7.18;;;6.18;;
59468;SDS011;45277;52.768;18.262;2023-06-14T04:43:31;7.15;;;6.05;;
59468;SDS011;45277;52.768;18.262;2023-06-14T04:45:08;10.80;;;7.03;;
59468;SDS011;45277;52.768;18.262;2023-06-14T04:46:40;9.32;;;6.75;;
59468;SDS011;45277;52.768;18.262;2023-06-14T04:48:16;8.13;;;6.93;;
59468;SDS011;45277;52.768;18.262;2023-06-14T04:49:50;8.82;;;6.50;;
59468;SDS011;45277;52.768;18.262;2023-06-14T04:51:23;10.73;;;6.68;;
59468;SDS011;45277;52.768;18.262;2023-06-14T04:53:00;9.40;;;6.75;;
59468;SDS011;45277;52.768;18.262;2023-06-14T04:54:31;11.05;;;6.55;;
59468;SDS011;45277;52.768;18.262;2023-06-14T04:56:04;9.55;;;6.60;;
59468;SDS011;45277;52.768;18.262;2023-06-14T04:57:35;9.13;;;6.45;;
59468;SDS011;45277;52.768;18.262;2023-06-14T04:59:09;7.28;;;6.22;;
59468;SDS011;45277;52.768;18.262;2023-06-14T05:00:42;10.48;;;6.53;;
59468;SDS011;45277;52.768;18.262;2023-06-14T05:02:13;10.20;;;6.95;;
59468;SDS011;45277;52.768;18.262;2023-06-14T05:03:45;9.68;;;6.75;;
59468;SDS011;45277;52.768;18.262;2023-06-14T05:05:19;12.27;;;6.72;;
59468;SDS011;45277;52.768;18.262;2023-06-14T05:06:50;8.43;;;6.57;;
59468;SDS011;45277;52.768;18.262;2023-06-14T05:08:22;7.38;;;5.97;;
59468;SDS011;45277;52.768;18.262;2023-06-14T05:09:56;7.75;;;6.30;;
59468;SDS011;45277;52.768;18.262;2023-06-14T05:11:28;7.50;;;6.00;;
59468;SDS011;45277;52.768;18.262;2023-06-14T05:13:00;8.57;;;6.50;;
59468;SDS011;45277;52.768;18.262;2023-06-14T05:14:32;9.05;;;6.82;;
59468;SDS011;45277;52.768;18.262;2023-06-14T05:16:03;9.27;;;6.97;;
59468;SDS011;45277;52.768;18.262;2023-06-14T05:17:35;8.52;;;6.05;;
59468;SDS011;45277;52.768;18.262;2023-06-14T05:19:07;8.18;;;6.00;;
59468;SDS011;45277;52.768;18.262;2023-06-14T05:20:38;7.38;;;6.55;;
59468;SDS011;45277;52.768;18.262;2023-06-14T05:22:10;8.15;;;6.68;;
59468;SDS011;45277;52.768;18.262;2023-06-14T05:23:42;11.75;;;7.15;;
59468;SDS011;45277;52.768;18.262;2023-06-14T05:25:15;8.80;;;6.13;;
59468;SDS011;45277;52.768;18.262;2023-06-14T05:26:46;8.43;;;6.22;;
59468;SDS011;45277;52.768;18.262;2023-06-14T05:28:18;8.68;;;6.70;;
59468;SDS011;45277;52.768;18.262;2023-06-14T05:29:49;10.50;;;7.10;;
59468;SDS011;45277;52.768;18.262;2023-06-14T05:31:21;8.75;;;6.35;;
59468;SDS011;45277;52.768;18.262;2023-06-14T05:32:52;7.47;;;6.40;;
59468;SDS011;45277;52.768;18.262;2023-06-14T05:34:25;9.77;;;6.25;;
59468;SDS011;45277;52.768;18.262;2023-06-14T05:35:57;13.43;;;6.70;;
59468;SDS011;45277;52.768;18.262;2023-06-14T05:37:29;11.07;;;6.53;;
59468;SDS011;45277;52.768;18.262;2023-06-14T05:39:01;9.45;;;6.28;;
59468;SDS011;45277;52.768;18.262;2023-06-14T05:40:33;9.45;;;6.70;;
59468;SDS011;45277;52.768;18.262;2023-06-14T05:42:05;12.75;;;6.78;;
59468;SDS011;45277;52.768;18.262;2023-06-14T05:43:37;8.35;;;6.60;;
59468;SDS011;45277;52.768;18.262;2023-06-14T05:45:08;8.18;;;6.60;;
59468;SDS011;45277;52.768;18.262;2023-06-14T05:46:40;10.90;;;6.60;;
59468;SDS011;45277;52.768;18.262;2023-06-14T05:48:11;9.60;;;6.93;;
59468;SDS011;45277;52.768;18.262;2023-06-14T05:49:43;9.60;;;7.00;;
59468;SDS011;45277;52.768;18.262;2023-06-14T05:51:14;9.10;;;6.60;;
59468;SDS011;45277;52.768;18.262;2023-06-14T05:52:49;10.95;;;7.35;;
59468;SDS011;45277;52.768;18.262;2023-06-14T05:54:20;10.65;;;6.60;;
59468;SDS011;45277;52.768;18.262;2023-06-14T05:55:52;8.63;;;7.03;;
59468;SDS011;45277;52.768;18.262;2023-06-14T05:57:25;10.60;;;6.60;;
59468;SDS011;45277;52.768;18.262;2023-06-14T05:58:56;8.77;;;6.80;;
59468;SDS011;45277;52.768;18.262;2023-06-14T06:00:28;10.80;;;6.35;;
59468;SDS011;45277;52.768;18.262;2023-06-14T06:01:59;10.68;;;7.18;;
59468;SDS011;45277;52.768;18.262;2023-06-14T06:03:30;9.85;;;6.68;;
59468;SDS011;45277;52.768;18.262;2023-06-14T06:05:03;10.40;;;6.70;;
59468;SDS011;45277;52.768;18.262;2023-06-14T06:06:36;9.88;;;6.25;;
59468;SDS011;45277;52.768;18.262;2023-06-14T06:08:08;9.23;;;6.15;;
59468;SDS011;45277;52.768;18.262;2023-06-14T06:09:39;11.82;;;7.10;;
59468;SDS011;45277;52.768;18.262;2023-06-14T06:11:11;11.85;;;7.00;;
59468;SDS011;45277;52.768;18.262;2023-06-14T06:12:43;7.82;;;6.38;;
59468;SDS011;45277;52.768;18.262;2023-06-14T06:14:14;7.75;;;6.53;;
59468;SDS011;45277;52.768;18.262;2023-06-14T06:15:46;12.23;;;6.47;;
59468;SDS011;45277;52.768;18.262;2023-06-14T06:17:17;12.23;;;6.40;;
59468;SDS011;45277;52.768;18.262;2023-06-14T06:18:49;11.57;;;6.07;;
59468;SDS011;45277;52.768;18.262;2023-06-14T06:20:21;9.45;;;6.45;;
59468;SDS011;45277;52.768;18.262;2023-06-14T06:21:58;8.75;;;6.63;;
59468;SDS011;45277;52.768;18.262;2023-06-14T06:23:31;8.13;;;5.97;;
59468;SDS011;45277;52.768;18.262;2023-06-14T06:25:03;10.85;;;6.43;;
59468;SDS011;45277;52.768;18.262;2023-06-14T06:26:35;7.75;;;5.95;;
59468;SDS011;45277;52.768;18.262;2023-06-14T06:28:07;13.15;;;7.15;;
59468;SDS011;45277;52.768;18.262;2023-06-14T06:29:39;9.55;;;6.78;;
59468;SDS011;45277;52.768;18.262;2023-06-14T06:31:12;11.52;;;7.05;;
59468;SDS011;45277;52.768;18.262;2023-06-14T06:32:44;13.18;;;7.10;;
59468;SDS011;45277;52.768;18.262;2023-06-14T06:34:16;10.95;;;7.25;;
59468;SDS011;45277;52.768;18.262;2023-06-14T06:35:48;9.25;;;6.68;;
59468;SDS011;45277;52.768;18.262;2023-06-14T06:37:19;10.68;;;6.47;;
59468;SDS011;45277;52.768;18.262;2023-06-14T06:38:51;9.35;;;6.15;;
59468;SDS011;45277;52.768;18.262;2023-06-14T06:40:23;7.97;;;6.55;;
59468;SDS011;45277;52.768;18.262;2023-06-14T06:41:55;8.65;;;6.70;;
59468;SDS011;45277;52.768;18.262;2023-06-14T06:43:26;9.75;;;6.53;;
59468;SDS011;45277;52.768;18.262;2023-06-14T06:44:57;9.85;;;6.57;;
59468;SDS011;45277;52.768;18.262;2023-06-14T06:46:30;8.43;;;5.93;;
59468;SDS011;45277;52.768;18.262;2023-06-14T06:48:01;8.25;;;5.97;;
59468;SDS011;45277;52.768;18.262;2023-06-14T06:49:33;8.25;;;6.32;;
59468;SDS011;45277;52.768;18.262;2023-06-14T06:51:04;7.38;;;5.75;;
59468;SDS011;45277;52.768;18.262;2023-06-14T06:52:36;11.93;;;6.85;;
59468;SDS011;45277;52.768;18.262;2023-06-14T06:54:07;11.57;;;6.40;;
59468;SDS011;45277;52.768;18.262;2023-06-14T06:55:40;10.65;;;6.22;;
59468;SDS011;45277;52.768;18.262;2023-06-14T06:57:11;12.35;;;6.35;;
59468;SDS011;45277;52.768;18.262;2023-06-14T06:58:43;10.05;;;7.03;;
59468;SDS011;45277;52.768;18.262;2023-06-14T07:00:15;9.95;;;6.88;;
59468;SDS011;45277;52.768;18.262;2023-06-14T07:01:48;9.90;;;6.30;;
59468;SDS011;45277;52.768;18.262;2023-06-14T07:03:20;9.05;;;6.03;;
59468;SDS011;45277;52.768;18.262;2023-06-14T07:04:52;8.75;;;6.38;;
59468;SDS011;45277;52.768;18.262;2023-06-14T07:06:23;11.25;;;7.05;;
59468;SDS011;45277;52.768;18.262;2023-06-14T07:07:57;9.05;;;6.80;;
59468;SDS011;45277;52.768;18.262;2023-06-14T07:09:29;8.23;;;6.60;;
59468;SDS011;45277;52.768;18.262;2023-06-14T07:11:00;10.68;;;6.40;;
59468;SDS011;45277;52.768;18.262;2023-06-14T07:12:32;8.95;;;6.30;;
59468;SDS011;45277;52.768;18.262;2023-06-14T07:14:06;9.45;;;6.25;;
59468;SDS011;45277;52.768;18.262;2023-06-14T07:15:38;13.57;;;7.22;;
59468;SDS011;45277;52.768;18.262;2023-06-14T07:17:10;10.82;;;6.68;;
59468;SDS011;45277;52.768;18.262;2023-06-14T07:18:42;7.93;;;5.95;;
59468;SDS011;45277;52.768;18.262;2023-06-14T07:20:14;6.70;;;5.45;;
59468;SDS011;45277;52.768;18.262;2023-06-14T07:21:46;8.70;;;6.28;;
59468;SDS011;45277;52.768;18.262;2023-06-14T07:23:18;12.55;;;6.65;;
59468;SDS011;45277;52.768;18.262;2023-06-14T07:24:50;8.52;;;5.63;;
59468;SDS011;45277;52.768;18.262;2023-06-14T07:26:22;9.50;;;4.93;;
59468;SDS011;45277;52.768;18.262;2023-06-14T07:27:54;7.22;;;5.50;;
59468;SDS011;45277;52.768;18.262;2023-06-14T07:29:27;9.25;;;5.43;;
59468;SDS011;45277;52.768;18.262;2023-06-14T07:30:59;9.02;;;5.97;;
59468;SDS011;45277;52.768;18.262;2023-06-14T07:32:32;10.15;;;5.85;;
59468;SDS011;45277;52.768;18.262;2023-06-14T07:34:03;9.35;;;5.97;;
59468;SDS011;45277;52.768;18.262;2023-06-14T07:35:35;8.55;;;5.10;;
59468;SDS011;45277;52.768;18.262;2023-06-14T07:37:06;9.02;;;5.47;;
59468;SDS011;45277;52.768;18.262;2023-06-14T07:38:38;8.68;;;5.63;;
59468;SDS011;45277;52.768;18.262;2023-06-14T07:40:11;7.13;;;4.75;;
59468;SDS011;45277;52.768;18.262;2023-06-14T07:41:43;8.00;;;5.18;;
59468;SDS011;45277;52.768;18.262;2023-06-14T07:43:14;7.07;;;5.35;;
59468;SDS011;45277;52.768;18.262;2023-06-14T07:44:46;7.32;;;5.30;;
59468;SDS011;45277;52.768;18.262;2023-06-14T07:46:17;11.07;;;5.22;;
59468;SDS011;45277;52.768;18.262;2023-06-14T07:47:49;6.95;;;4.93;;
59468;SDS011;45277;52.768;18.262;2023-06-14T07:49:22;7.38;;;5.30;;
59468;SDS011;45277;52.768;18.262;2023-06-14T07:50:54;8.85;;;5.35;;
59468;SDS011;45277;52.768;18.262;2023-06-14T07:52:26;9.32;;;5.00;;
59468;SDS011;45277;52.768;18.262;2023-06-14T07:53:59;9.02;;;5.32;;
59468;SDS011;45277;52.768;18.262;2023-06-14T07:55:31;8.55;;;5.65;;
59468;SDS011;45277;52.768;18.262;2023-06-14T07:57:04;8.50;;;4.88;;
59468;SDS011;45277;52.768;18.262;2023-06-14T07:58:36;8.68;;;5.22;;
59468;SDS011;45277;52.768;18.262;2023-06-14T08:00:09;10.73;;;5.25;;
59468;SDS011;45277;52.768;18.262;2023-06-14T08:01:46;11.82;;;5.47;;
59468;SDS011;45277;52.768;18.262;2023-06-14T08:03:18;7.03;;;5.28;;
59468;SDS011;45277;52.768;18.262;2023-06-14T08:04:51;7.75;;;5.45;;
59468;SDS011;45277;52.768;18.262;2023-06-14T08:06:23;10.05;;;5.57;;
59468;SDS011;45277;52.768;18.262;2023-06-14T08:07:56;8.18;;;5.65;;
59468;SDS011;45277;52.768;18.262;2023-06-14T08:09:27;7.53;;;5.10;;
59468;SDS011;45277;52.768;18.262;2023-06-14T08:11:00;8.68;;;5.43;;
59468;SDS011;45277;52.768;18.262;2023-06-14T08:12:32;10.65;;;5.55;;
59468;SDS011;45277;52.768;18.262;2023-06-14T08:14:05;7.57;;;5.35;;
59468;SDS011;45277;52.768;18.262;2023-06-14T08:15:37;9.93;;;5.28;;
59468;SDS011;45277;52.768;18.262;2023-06-14T08:17:08;5.97;;;4.90;;
59468;SDS011;45277;52.768;18.262;2023-06-14T08:18:40;7.30;;;5.05;;
59468;SDS011;45277;52.768;18.262;2023-06-14T08:20:11;6.78;;;5.22;;
59468;SDS011;45277;52.768;18.262;2023-06-14T08:21:47;5.63;;;4.75;;
59468;SDS011;45277;52.768;18.262;2023-06-14T08:23:19;6.25;;;4.88;;
59468;SDS011;45277;52.768;18.262;2023-06-14T08:24:51;7.28;;;5.00;;
59468;SDS011;45277;52.768;18.262;2023-06-14T08:26:24;10.45;;;5.07;;
59468;SDS011;45277;52.768;18.262;2023-06-14T08:27:59;5.47;;;4.40;;
59468;SDS011;45277;52.768;18.262;2023-06-14T08:29:31;6.45;;;4.55;;
59468;SDS011;45277;52.768;18.262;2023-06-14T08:31:02;5.00;;;3.85;;
59468;SDS011;45277;52.768;18.262;2023-06-14T08:32:34;6.82;;;3.90;;
59468;SDS011;45277;52.768;18.262;2023-06-14T08:34:05;10.02;;;6.07;;
59468;SDS011;45277;52.768;18.262;2023-06-14T08:35:37;6.25;;;5.20;;
59468;SDS011;45277;52.768;18.262;2023-06-14T08:37:10;8.85;;;5.32;;
59468;SDS011;45277;52.768;18.262;2023-06-14T08:38:41;6.38;;;4.93;;
59468;SDS011;45277;52.768;18.262;2023-06-14T08:40:20;7.45;;;5.22;;
59468;SDS011;45277;52.768;18.262;2023-06-14T08:41:53;9.13;;;5.43;;
59468;SDS011;45277;52.768;18.262;2023-06-14T08:43:27;7.88;;;5.60;;
59468;SDS011;45277;52.768;18.262;2023-06-14T08:44:58;7.60;;;5.15;;
59468;SDS011;45277;52.768;18.262;2023-06-14T08:46:30;11.23;;;5.57;;
59468;SDS011;45277;52.768;18.262;2023-06-14T08:48:05;9.63;;;5.70;;
59468;SDS011;45277;52.768;18.262;2023-06-14T08:49:37;11.00;;;5.85;;
59468;SDS011;45277;52.768;18.262;2023-06-14T08:51:11;9.80;;;5.63;;
59468;SDS011;45277;52.768;18.262;2023-06-14T08:52:45;8.32;;;5.10;;
59468;SDS011;45277;52.768;18.262;2023-06-14T08:54:21;6.30;;;4.57;;
59468;SDS011;45277;52.768;18.262;2023-06-14T08:55:55;8.27;;;4.60;;
59468;SDS011;45277;52.768;18.262;2023-06-14T08:57:27;7.35;;;4.72;;
59468;SDS011;45277;52.768;18.262;2023-06-14T08:59:00;9.43;;;5.15;;
59468;SDS011;45277;52.768;18.262;2023-06-14T09:00:34;10.38;;;5.20;;
59468;SDS011;45277;52.768;18.262;2023-06-14T09:02:08;8.18;;;5.60;;
59468;SDS011;45277;52.768;18.262;2023-06-14T09:03:45;6.55;;;5.05;;
59468;SDS011;45277;52.768;18.262;2023-06-14T09:05:19;8.63;;;6.05;;
59468;SDS011;45277;52.768;18.262;2023-06-14T09:06:50;10.40;;;6.05;;
59468;SDS011;45277;52.768;18.262;2023-06-14T09:08:25;8.45;;;5.90;;
59468;SDS011;45277;52.768;18.262;2023-06-14T09:10:05;5.53;;;4.60;;
59468;SDS011;45277;52.768;18.262;2023-06-14T09:11:41;7.28;;;4.70;;
59468;SDS011;45277;52.768;18.262;2023-06-14T09:13:13;7.28;;;4.22;;
59468;SDS011;45277;52.768;18.262;2023-06-14T09:14:45;6.00;;;4.15;;
59468;SDS011;45277;52.768;18.262;2023-06-14T09:16:17;6.10;;;4.55;;
59468;SDS011;45277;52.768;18.262;2023-06-14T09:17:48;4.15;;;3.47;;